createdAt,value
2019-05-13T00:05:13.000Z,42.676
2019-05-13T00:15:13.000Z,42.875
2019-05-13T00:25:17.000Z,42.841
2019-05-13T00:35:14.000Z,42.946
2019-05-13T00:45:14.000Z,43.005
2019-05-13T00:55:14.000Z,42.982
2019-05-13T01:05:14.000Z,43.096
2019-05-13T01:15:14.000Z,43.062
2019-05-13T01:25:14.000Z,43.241
2019-05-13T01:35:15.000Z,43.184
2019-05-13T01:45:14.000Z,43.298
2019-05-13T01:55:14.000Z,43.435
2019-05-13T02:15:14.000Z,43.609
2019-05-13T02:25:15.000Z,43.705
2019-05-13T02:35:15.000Z,43.849
2019-05-13T02:45:14.000Z,43.933
2019-05-13T02:55:14.000Z,43.929
2019-05-13T03:05:14.000Z,43.907
2019-05-13T03:15:14.000Z,43.957
2019-05-13T03:25:14.000Z,44.092
2019-05-13T03:35:14.000Z,44.153
2019-05-13T03:45:14.000Z,44.182
2019-05-13T03:55:15.000Z,44.244
2019-05-13T04:05:14.000Z,44.368
2019-05-13T04:15:14.000Z,44.452
2019-05-13T04:25:14.000Z,44.481
2019-05-13T04:35:14.000Z,44.597
2019-05-13T04:45:14.000Z,44.608
2019-05-13T04:55:16.000Z,44.564
2019-05-13T05:05:14.000Z,44.552
2019-05-13T05:15:14.000Z,44.592
2019-05-13T05:25:15.000Z,44.355
2019-05-13T05:35:14.000Z,44.313
2019-05-13T05:45:14.000Z,44.334
2019-05-13T05:55:15.000Z,44.341
2019-05-13T06:05:14.000Z,44.254
2019-05-13T06:15:14.000Z,44.156
2019-05-13T06:25:14.000Z,44.289
2019-05-13T06:35:16.000Z,45.019
2019-05-13T06:45:16.000Z,45.353
2019-05-13T06:55:14.000Z,45.582
2019-05-13T07:05:15.000Z,45.572
2019-05-13T07:15:14.000Z,45.575
2019-05-13T07:25:14.000Z,45.458
2019-05-13T07:35:14.000Z,45.439
2019-05-13T07:45:18.000Z,45.621
2019-05-13T07:55:15.000Z,45.652
2019-05-13T08:05:14.000Z,45.617
2019-05-13T08:15:14.000Z,45.491
2019-05-13T08:25:14.000Z,45.381
2019-05-13T08:35:14.000Z,45.32
2019-05-13T08:45:16.000Z,45.37
2019-05-13T08:55:15.000Z,45.302
2019-05-13T09:05:15.000Z,45.165
2019-05-13T09:15:15.000Z,45.107
2019-05-13T09:25:15.000Z,44.987
2019-05-13T09:35:15.000Z,45.254
2019-05-13T09:45:15.000Z,45.123
2019-05-13T09:55:15.000Z,45.144
2019-05-13T10:05:15.000Z,44.666
2019-05-13T10:15:15.000Z,44.847
2019-05-13T10:25:16.000Z,44.776
2019-05-13T10:35:18.000Z,44.706
2019-05-13T10:45:15.000Z,44.347
2019-05-13T10:55:15.000Z,44.242
2019-05-13T11:05:15.000Z,44.111
2019-05-13T11:15:15.000Z,44.448
2019-05-13T11:25:16.000Z,44.447
2019-05-13T11:35:15.000Z,44.221
2019-05-13T11:45:18.000Z,44.376
2019-05-13T11:55:15.000Z,44.261
2019-05-13T12:05:15.000Z,44.311
2019-05-13T12:15:15.000Z,44.224
2019-05-13T12:25:15.000Z,44.204
2019-05-13T12:35:15.000Z,44.236
2019-05-13T12:45:15.000Z,44.203
2019-05-13T12:55:15.000Z,44.277
2019-05-13T13:05:15.000Z,44.472
2019-05-13T13:15:15.000Z,44.691
2019-05-13T13:25:15.000Z,44.183
2019-05-13T13:35:15.000Z,44.211
2019-05-13T13:45:15.000Z,44.162
2019-05-13T13:55:15.000Z,44.039
2019-05-13T14:05:15.000Z,43.924
2019-05-13T14:15:15.000Z,43.636
2019-05-13T14:25:15.000Z,43.341
2019-05-13T14:35:15.000Z,43.425
2019-05-13T14:45:15.000Z,42.881
2019-05-13T14:55:15.000Z,43.186
2019-05-13T15:15:17.000Z,44.116
2019-05-13T15:25:16.000Z,44.158
2019-05-13T15:55:15.000Z,44.797
2019-05-13T16:05:15.000Z,44.672
2019-05-13T16:25:15.000Z,44.792
2019-05-13T16:35:17.000Z,44.879
2019-05-13T16:45:15.000Z,44.857
2019-05-13T16:55:15.000Z,44.672
2019-05-13T17:05:16.000Z,44.629
2019-05-13T17:15:16.000Z,44.75
2019-05-13T17:25:16.000Z,44.682
2019-05-13T17:35:17.000Z,44.771
2019-05-13T17:45:18.000Z,44.725
2019-05-13T17:55:16.000Z,44.681
2019-05-13T18:05:16.000Z,44.766
2019-05-13T18:15:16.000Z,44.656
2019-05-13T18:25:16.000Z,44.802
2019-05-13T18:45:17.000Z,44.912
2019-05-13T18:55:16.000Z,45.031
2019-05-13T19:05:16.000Z,45.075
2019-05-13T19:15:16.000Z,45.41
2019-05-13T19:25:16.000Z,45.583
2019-05-13T19:35:18.000Z,45.634
2019-05-13T19:45:16.000Z,45.85
2019-05-13T19:55:16.000Z,45.85
2019-05-13T20:05:16.000Z,45.763
2019-05-13T20:15:16.000Z,45.573
2019-05-13T20:25:16.000Z,45.895
2019-05-13T20:35:16.000Z,46.014
2019-05-13T20:45:17.000Z,46.032
2019-05-13T20:55:18.000Z,46.092
2019-05-13T21:05:16.000Z,46.066
2019-05-13T21:25:16.000Z,46.1
2019-05-13T21:35:16.000Z,46.093
2019-05-13T21:45:17.000Z,46.038
2019-05-13T21:55:16.000Z,46.084
2019-05-13T22:05:16.000Z,46.22
2019-05-13T22:15:16.000Z,45.957
2019-05-13T22:25:16.000Z,45.951
2019-05-13T22:35:16.000Z,45.976
2019-05-13T22:45:17.000Z,46.124
2019-05-13T22:55:16.000Z,46.12
2019-05-13T23:05:17.000Z,46.18
2019-05-13T23:15:16.000Z,46.144
2019-05-13T23:25:18.000Z,46.258
2019-05-13T23:35:16.000Z,46.223
2019-05-13T23:45:16.000Z,46.197
2019-05-13T23:55:16.000Z,46.161
